< Cyclone 199105 1991 Season Cyclone 199107 >
Cyclone 199106 (ELMA)
General InformationTrack Information on Google MapsDetailed Wind InformationList of All Images || ResourceGoogle EarthGE AnimationAtom FeedGeoJSON
Detalied Best Track (Time Zone = UTC)
Year Month Day Hour Lat. Long. Pressure (hPa) Wind (kt) Class Image Chart
1991 2 26 00 -9.3 88.1 1000 31 2 Image --
1991 2 26 06 -10.2 88.2 1000 31 2 Image --
1991 2 26 12 -10.9 88.4 1000 31 2 Image --
1991 2 26 18 -11.7 88.6 995 39 3 Image --
1991 2 27 00 -12.7 88.7 990 47 3 Image --
1991 2 27 06 -13.6 88.8 990 47 3 Image --
1991 2 27 12 -14.4 88.8 985 54 4 Image --
1991 2 27 18 -15.2 88.6 980 60 4 Image --
1991 2 28 00 -15.9 88.4 980 60 4 Image --
1991 2 28 06 -16.7 88.4 975 66 5 Image --
1991 2 28 12 -17.3 88.5 970 74 5 Image --
1991 2 28 18 -17.9 88.9 965 80 5 Image --
1991 3 1 00 -18.5 89.3 965 80 5 Image --
1991 3 1 06 -19.2 89.3 970 74 5 Image --
1991 3 1 12 -20.0 89.4 970 74 5 Image --
1991 3 1 18 -20.6 89.8 975 66 5 Image --
1991 3 2 00 -21.1 90.2 975 66 5 Image --
1991 3 2 06 -21.7 90.6 980 60 4 Image --
1991 3 2 12 -22.3 91.0 985 54 4 Image --
1991 3 2 18 -22.9 91.6 990 47 3 Image --
1991 3 3 00 -23.4 92.1 990 47 3 Image --
1991 3 3 06 -24.2 93.5 995 39 3 Image --
1991 3 3 12 -25.1 94.2 1000 31 2 Image --
1991 3 3 18 -26.0 93.9 1000 31 2 Image --
1991 3 4 00 -26.9 93.5 1005 23 2 Image --
1991 3 4 06 -27.4 92.9 1005 23 2 Image --
1991 3 4 12 -27.1 91.5 1005 23 2 Image --
1991 3 4 18 -26.5 90.4 1005 23 2 Image --
1991 3 5 00 -25.9 89.3 1005 23 2 Image --
< Cyclone 199105 1991 Season Cyclone 199107 >

Help